sensor_id;sensor_type;location;lat;lon;timestamp;P1;durP1;ratioP1;P2;durP2;ratioP2
50906;SDS011;36882;27.680;85.304;2022-08-20T00:02:25;13.20;;;6.53;;
50906;SDS011;36882;27.680;85.304;2022-08-20T00:05:11;10.57;;;7.00;;
50906;SDS011;36882;27.680;85.304;2022-08-20T00:08:00;10.68;;;7.03;;
50906;SDS011;36882;27.680;85.304;2022-08-20T00:10:32;8.80;;;6.53;;
50906;SDS011;36882;27.680;85.304;2022-08-20T00:13:21;10.80;;;7.22;;
50906;SDS011;36882;27.680;85.304;2022-08-20T00:16:14;14.65;;;6.35;;
50906;SDS011;36882;27.680;85.304;2022-08-20T00:18:46;13.85;;;6.00;;
50906;SDS011;36882;27.680;85.304;2022-08-20T00:21:17;14.13;;;6.63;;
50906;SDS011;36882;27.680;85.304;2022-08-20T00:23:51;13.55;;;6.97;;
50906;SDS011;36882;27.680;85.304;2022-08-20T00:26:23;12.88;;;6.75;;
50906;SDS011;36882;27.680;85.304;2022-08-20T00:29:10;16.55;;;7.18;;
50906;SDS011;36882;27.680;85.304;2022-08-20T00:31:56;13.48;;;7.55;;
50906;SDS011;36882;27.680;85.304;2022-08-20T00:34:26;12.73;;;6.95;;
50906;SDS011;36882;27.680;85.304;2022-08-20T00:36:57;13.73;;;8.50;;
50906;SDS011;36882;27.680;85.304;2022-08-20T00:39:43;18.10;;;8.30;;
50906;SDS011;36882;27.680;85.304;2022-08-20T00:42:14;9.25;;;6.50;;
50906;SDS011;36882;27.680;85.304;2022-08-20T00:44:45;13.25;;;6.50;;
50906;SDS011;36882;27.680;85.304;2022-08-20T00:47:16;12.65;;;6.03;;
50906;SDS011;36882;27.680;85.304;2022-08-20T00:49:48;10.93;;;5.80;;
50906;SDS011;36882;27.680;85.304;2022-08-20T00:52:18;8.57;;;6.10;;
50906;SDS011;36882;27.680;85.304;2022-08-20T00:54:53;8.38;;;4.05;;
50906;SDS011;36882;27.680;85.304;2022-08-20T00:57:29;8.30;;;5.60;;
50906;SDS011;36882;27.680;85.304;2022-08-20T01:00:27;12.38;;;6.63;;
50906;SDS011;36882;27.680;85.304;2022-08-20T01:03:00;9.70;;;6.45;;
50906;SDS011;36882;27.680;85.304;2022-08-20T01:05:48;7.28;;;5.38;;
50906;SDS011;36882;27.680;85.304;2022-08-20T01:08:20;7.07;;;5.53;;
50906;SDS011;36882;27.680;85.304;2022-08-20T01:10:54;8.10;;;5.13;;
50906;SDS011;36882;27.680;85.304;2022-08-20T01:13:41;6.20;;;5.53;;
50906;SDS011;36882;27.680;85.304;2022-08-20T01:16:18;6.15;;;4.50;;
50906;SDS011;36882;27.680;85.304;2022-08-20T01:19:10;6.05;;;4.45;;
50906;SDS011;36882;27.680;85.304;2022-08-20T01:21:56;8.68;;;5.85;;
50906;SDS011;36882;27.680;85.304;2022-08-20T01:24:43;8.82;;;6.60;;
50906;SDS011;36882;27.680;85.304;2022-08-20T01:27:29;8.77;;;6.13;;
50906;SDS011;36882;27.680;85.304;2022-08-20T01:30:16;11.35;;;5.10;;
50906;SDS011;36882;27.680;85.304;2022-08-20T01:32:47;8.75;;;4.70;;
50906;SDS011;36882;27.680;85.304;2022-08-20T01:35:19;10.70;;;5.60;;
50906;SDS011;36882;27.680;85.304;2022-08-20T01:37:51;8.07;;;5.22;;
50906;SDS011;36882;27.680;85.304;2022-08-20T01:40:26;8.98;;;5.43;;
50906;SDS011;36882;27.680;85.304;2022-08-20T01:43:27;11.00;;;7.13;;
50906;SDS011;36882;27.680;85.304;2022-08-20T01:46:14;10.75;;;6.75;;
50906;SDS011;36882;27.680;85.304;2022-08-20T01:48:47;10.93;;;6.57;;
50906;SDS011;36882;27.680;85.304;2022-08-20T01:51:19;11.00;;;6.57;;
50906;SDS011;36882;27.680;85.304;2022-08-20T01:53:55;7.97;;;6.45;;
50906;SDS011;36882;27.680;85.304;2022-08-20T01:56:29;8.57;;;6.40;;
50906;SDS011;36882;27.680;85.304;2022-08-20T01:59:03;8.80;;;7.22;;
50906;SDS011;36882;27.680;85.304;2022-08-20T02:01:36;10.88;;;6.30;;
50906;SDS011;36882;27.680;85.304;2022-08-20T02:04:23;5.78;;;4.72;;
50906;SDS011;36882;27.680;85.304;2022-08-20T02:06:56;9.68;;;5.35;;
50906;SDS011;36882;27.680;85.304;2022-08-20T02:12:15;9.02;;;6.45;;
50906;SDS011;36882;27.680;85.304;2022-08-20T02:14:47;9.20;;;6.60;;
50906;SDS011;36882;27.680;85.304;2022-08-20T02:17:36;8.15;;;5.70;;
50906;SDS011;36882;27.680;85.304;2022-08-20T02:20:19;13.00;;;6.53;;
50906;SDS011;36882;27.680;85.304;2022-08-20T02:22:58;20.40;;;8.18;;
50906;SDS011;36882;27.680;85.304;2022-08-20T02:25:45;16.85;;;7.90;;
50906;SDS011;36882;27.680;85.304;2022-08-20T02:28:17;11.18;;;7.40;;
50906;SDS011;36882;27.680;85.304;2022-08-20T02:30:50;11.52;;;7.15;;
50906;SDS011;36882;27.680;85.304;2022-08-20T02:33:38;10.35;;;6.13;;
50906;SDS011;36882;27.680;85.304;2022-08-20T02:36:29;9.13;;;7.47;;
50906;SDS011;36882;27.680;85.304;2022-08-20T02:39:00;12.77;;;7.30;;
50906;SDS011;36882;27.680;85.304;2022-08-20T02:41:35;11.82;;;8.25;;
50906;SDS011;36882;27.680;85.304;2022-08-20T02:44:06;8.68;;;7.72;;
50906;SDS011;36882;27.680;85.304;2022-08-20T02:46:37;12.13;;;8.73;;
50906;SDS011;36882;27.680;85.304;2022-08-20T02:49:08;14.70;;;8.40;;
50906;SDS011;36882;27.680;85.304;2022-08-20T02:51:38;11.10;;;7.82;;
50906;SDS011;36882;27.680;85.304;2022-08-20T02:54:09;11.20;;;8.85;;
50906;SDS011;36882;27.680;85.304;2022-08-20T02:56:40;12.27;;;8.38;;
50906;SDS011;36882;27.680;85.304;2022-08-20T02:59:11;12.73;;;8.40;;
50906;SDS011;36882;27.680;85.304;2022-08-20T03:01:46;22.38;;;9.05;;
50906;SDS011;36882;27.680;85.304;2022-08-20T03:04:26;11.50;;;8.63;;
50906;SDS011;36882;27.680;85.304;2022-08-20T03:07:13;10.07;;;8.07;;
50906;SDS011;36882;27.680;85.304;2022-08-20T03:09:43;14.85;;;8.93;;
50906;SDS011;36882;27.680;85.304;2022-08-20T03:12:14;11.60;;;9.52;;
50906;SDS011;36882;27.680;85.304;2022-08-20T03:14:44;15.60;;;8.63;;
50906;SDS011;36882;27.680;85.304;2022-08-20T03:17:15;10.25;;;8.75;;
50906;SDS011;36882;27.680;85.304;2022-08-20T03:20:01;16.98;;;11.68;;
50906;SDS011;36882;27.680;85.304;2022-08-20T03:22:35;18.88;;;16.05;;
50906;SDS011;36882;27.680;85.304;2022-08-20T03:25:05;21.20;;;16.95;;
50906;SDS011;36882;27.680;85.304;2022-08-20T03:27:52;26.35;;;18.77;;
50906;SDS011;36882;27.680;85.304;2022-08-20T03:30:24;24.35;;;18.13;;
50906;SDS011;36882;27.680;85.304;2022-08-20T03:32:56;28.30;;;19.67;;
50906;SDS011;36882;27.680;85.304;2022-08-20T03:35:27;21.50;;;19.27;;
50906;SDS011;36882;27.680;85.304;2022-08-20T03:37:59;31.67;;;21.92;;
50906;SDS011;36882;27.680;85.304;2022-08-20T03:40:35;31.50;;;20.85;;
50906;SDS011;36882;27.680;85.304;2022-08-20T03:43:07;22.35;;;17.17;;
50906;SDS011;36882;27.680;85.304;2022-08-20T03:45:39;17.35;;;15.55;;
50906;SDS011;36882;27.680;85.304;2022-08-20T03:48:13;17.17;;;13.70;;
50906;SDS011;36882;27.680;85.304;2022-08-20T03:50:46;16.05;;;11.98;;
50906;SDS011;36882;27.680;85.304;2022-08-20T03:53:18;15.68;;;13.38;;
50906;SDS011;36882;27.680;85.304;2022-08-20T03:55:49;18.58;;;13.10;;
50906;SDS011;36882;27.680;85.304;2022-08-20T03:58:28;21.00;;;13.60;;
50906;SDS011;36882;27.680;85.304;2022-08-20T04:01:02;17.65;;;14.32;;
50906;SDS011;36882;27.680;85.304;2022-08-20T04:03:54;23.95;;;13.90;;
50906;SDS011;36882;27.680;85.304;2022-08-20T04:06:26;23.63;;;17.15;;
50906;SDS011;36882;27.680;85.304;2022-08-20T04:08:58;20.83;;;17.30;;
50906;SDS011;36882;27.680;85.304;2022-08-20T04:11:28;25.27;;;17.27;;
50906;SDS011;36882;27.680;85.304;2022-08-20T04:14:01;21.35;;;16.23;;
50906;SDS011;36882;27.680;85.304;2022-08-20T04:16:31;20.95;;;15.88;;
50906;SDS011;36882;27.680;85.304;2022-08-20T04:19:03;21.02;;;14.07;;
50906;SDS011;36882;27.680;85.304;2022-08-20T04:21:50;19.42;;;15.48;;
50906;SDS011;36882;27.680;85.304;2022-08-20T04:24:20;21.00;;;18.40;;
50906;SDS011;36882;27.680;85.304;2022-08-20T04:27:07;24.88;;;17.88;;
50906;SDS011;36882;27.680;85.304;2022-08-20T04:29:40;26.63;;;16.77;;
50906;SDS011;36882;27.680;85.304;2022-08-20T04:32:12;18.42;;;16.60;;
50906;SDS011;36882;27.680;85.304;2022-08-20T04:34:43;19.23;;;15.85;;
50906;SDS011;36882;27.680;85.304;2022-08-20T04:37:17;21.08;;;15.10;;
50906;SDS011;36882;27.680;85.304;2022-08-20T04:40:05;24.67;;;19.17;;
50906;SDS011;36882;27.680;85.304;2022-08-20T04:42:51;21.08;;;15.10;;
50906;SDS011;36882;27.680;85.304;2022-08-20T04:45:22;17.48;;;13.82;;
50906;SDS011;36882;27.680;85.304;2022-08-20T04:48:08;17.50;;;15.02;;
50906;SDS011;36882;27.680;85.304;2022-08-20T04:50:42;18.80;;;14.65;;
50906;SDS011;36882;27.680;85.304;2022-08-20T04:53:15;23.35;;;15.73;;
50906;SDS011;36882;27.680;85.304;2022-08-20T04:55:51;21.60;;;16.55;;
50906;SDS011;36882;27.680;85.304;2022-08-20T04:58:24;22.30;;;15.43;;
50906;SDS011;36882;27.680;85.304;2022-08-20T05:01:15;19.70;;;16.40;;
50906;SDS011;36882;27.680;85.304;2022-08-20T05:03:46;23.92;;;17.50;;
50906;SDS011;36882;27.680;85.304;2022-08-20T05:06:16;18.52;;;15.40;;
50906;SDS011;36882;27.680;85.304;2022-08-20T05:08:47;18.23;;;13.18;;
50906;SDS011;36882;27.680;85.304;2022-08-20T05:11:18;18.27;;;13.70;;
50906;SDS011;36882;27.680;85.304;2022-08-20T05:14:00;22.25;;;17.50;;
50906;SDS011;36882;27.680;85.304;2022-08-20T05:16:36;17.23;;;15.32;;
50906;SDS011;36882;27.680;85.304;2022-08-20T05:19:10;19.88;;;13.75;;
50906;SDS011;36882;27.680;85.304;2022-08-20T05:21:42;25.35;;;18.63;;
50906;SDS011;36882;27.680;85.304;2022-08-20T05:24:14;26.70;;;17.33;;
50906;SDS011;36882;27.680;85.304;2022-08-20T05:26:44;27.65;;;17.63;;
50906;SDS011;36882;27.680;85.304;2022-08-20T05:29:15;19.77;;;14.20;;
50906;SDS011;36882;27.680;85.304;2022-08-20T05:31:47;8.45;;;5.63;;
50906;SDS011;36882;27.680;85.304;2022-08-20T05:34:33;16.45;;;9.63;;
50906;SDS011;36882;27.680;85.304;2022-08-20T05:37:05;13.20;;;6.43;;
50906;SDS011;36882;27.680;85.304;2022-08-20T05:39:37;7.75;;;4.72;;
50906;SDS011;36882;27.680;85.304;2022-08-20T05:42:23;7.57;;;4.60;;
50906;SDS011;36882;27.680;85.304;2022-08-20T05:44:56;13.20;;;5.15;;
50906;SDS011;36882;27.680;85.304;2022-08-20T05:47:27;9.45;;;5.28;;
50906;SDS011;36882;27.680;85.304;2022-08-20T05:50:04;11.25;;;5.25;;
50906;SDS011;36882;27.680;85.304;2022-08-20T05:52:45;4.95;;;3.50;;
50906;SDS011;36882;27.680;85.304;2022-08-20T05:55:31;4.85;;;2.92;;
50906;SDS011;36882;27.680;85.304;2022-08-20T05:58:04;6.82;;;3.25;;
50906;SDS011;36882;27.680;85.304;2022-08-20T06:00:37;8.73;;;3.00;;
50906;SDS011;36882;27.680;85.304;2022-08-20T06:03:22;4.03;;;2.50;;
50906;SDS011;36882;27.680;85.304;2022-08-20T06:06:10;6.75;;;3.28;;
50906;SDS011;36882;27.680;85.304;2022-08-20T06:09:00;3.10;;;1.63;;
50906;SDS011;36882;27.680;85.304;2022-08-20T06:11:31;4.32;;;2.95;;
50906;SDS011;36882;27.680;85.304;2022-08-20T06:14:03;8.73;;;3.58;;
50906;SDS011;36882;27.680;85.304;2022-08-20T06:16:49;5.40;;;2.67;;
50906;SDS011;36882;27.680;85.304;2022-08-20T06:19:25;5.47;;;2.92;;
50906;SDS011;36882;27.680;85.304;2022-08-20T06:22:11;8.07;;;3.20;;
50906;SDS011;36882;27.680;85.304;2022-08-20T06:24:50;8.95;;;2.67;;
50906;SDS011;36882;27.680;85.304;2022-08-20T06:27:20;4.55;;;2.55;;
50906;SDS011;36882;27.680;85.304;2022-08-20T06:29:51;10.18;;;2.38;;
50906;SDS011;36882;27.680;85.304;2022-08-20T06:32:22;4.75;;;3.13;;
50906;SDS011;36882;27.680;85.304;2022-08-20T06:34:59;3.85;;;2.50;;
50906;SDS011;36882;27.680;85.304;2022-08-20T06:37:32;3.10;;;2.63;;
50906;SDS011;36882;27.680;85.304;2022-08-20T06:40:11;11.57;;;2.83;;
50906;SDS011;36882;27.680;85.304;2022-08-20T06:42:47;4.00;;;3.03;;
50906;SDS011;36882;27.680;85.304;2022-08-20T06:45:20;8.73;;;2.13;;
50906;SDS011;36882;27.680;85.304;2022-08-20T06:48:08;5.70;;;2.17;;
50906;SDS011;36882;27.680;85.304;2022-08-20T06:50:56;4.85;;;2.08;;
50906;SDS011;36882;27.680;85.304;2022-08-20T06:53:27;5.32;;;2.67;;
50906;SDS011;36882;27.680;85.304;2022-08-20T06:55:57;7.60;;;2.40;;
50906;SDS011;36882;27.680;85.304;2022-08-20T06:58:29;4.82;;;2.35;;
50906;SDS011;36882;27.680;85.304;2022-08-20T07:01:07;4.85;;;2.22;;
50906;SDS011;36882;27.680;85.304;2022-08-20T07:03:40;4.45;;;2.63;;
50906;SDS011;36882;27.680;85.304;2022-08-20T07:06:23;4.82;;;2.63;;
50906;SDS011;36882;27.680;85.304;2022-08-20T07:08:54;4.95;;;2.22;;
50906;SDS011;36882;27.680;85.304;2022-08-20T07:11:25;6.75;;;3.33;;
50906;SDS011;36882;27.680;85.304;2022-08-20T07:13:56;6.63;;;2.42;;
50906;SDS011;36882;27.680;85.304;2022-08-20T07:16:27;8.32;;;3.35;;
50906;SDS011;36882;27.680;85.304;2022-08-20T07:18:59;5.72;;;2.95;;
50906;SDS011;36882;27.680;85.304;2022-08-20T07:21:29;5.32;;;3.60;;
50906;SDS011;36882;27.680;85.304;2022-08-20T07:24:00;6.32;;;3.58;;
50906;SDS011;36882;27.680;85.304;2022-08-20T07:41:48;6.05;;;2.70;;
50906;SDS011;36882;27.680;85.304;2022-08-20T07:44:31;7.40;;;2.67;;
50906;SDS011;36882;27.680;85.304;2022-08-20T07:47:02;5.50;;;4.18;;
50906;SDS011;36882;27.680;85.304;2022-08-20T07:49:37;7.38;;;2.63;;
50906;SDS011;36882;27.680;85.304;2022-08-20T07:52:24;4.35;;;2.92;;
50906;SDS011;36882;27.680;85.304;2022-08-20T07:54:54;6.85;;;3.22;;
50906;SDS011;36882;27.680;85.304;2022-08-20T07:57:25;7.70;;;3.03;;
50906;SDS011;36882;27.680;85.304;2022-08-20T08:00:12;8.30;;;3.42;;
50906;SDS011;36882;27.680;85.304;2022-08-20T08:02:44;9.43;;;3.67;;
50906;SDS011;36882;27.680;85.304;2022-08-20T08:05:15;5.47;;;3.35;;
50906;SDS011;36882;27.680;85.304;2022-08-20T08:07:46;9.77;;;2.95;;
50906;SDS011;36882;27.680;85.304;2022-08-20T08:10:17;7.43;;;3.03;;
50906;SDS011;36882;27.680;85.304;2022-08-20T08:12:52;4.43;;;3.17;;
50906;SDS011;36882;27.680;85.304;2022-08-20T08:15:28;5.30;;;3.40;;
50906;SDS011;36882;27.680;85.304;2022-08-20T08:18:04;6.43;;;3.65;;
50906;SDS011;36882;27.680;85.304;2022-08-20T08:20:55;6.88;;;3.10;;
50906;SDS011;36882;27.680;85.304;2022-08-20T08:23:41;5.45;;;3.38;;
50906;SDS011;36882;27.680;85.304;2022-08-20T08:26:13;9.63;;;3.63;;
50906;SDS011;36882;27.680;85.304;2022-08-20T08:28:45;4.72;;;2.97;;
50906;SDS011;36882;27.680;85.304;2022-08-20T08:31:32;6.47;;;3.13;;
50906;SDS011;36882;27.680;85.304;2022-08-20T08:34:02;6.50;;;3.60;;
50906;SDS011;36882;27.680;85.304;2022-08-20T08:36:38;5.82;;;2.97;;
50906;SDS011;36882;27.680;85.304;2022-08-20T08:39:27;4.72;;;3.08;;
50906;SDS011;36882;27.680;85.304;2022-08-20T08:42:00;6.47;;;3.20;;
50906;SDS011;36882;27.680;85.304;2022-08-20T08:44:44;5.18;;;3.20;;
50906;SDS011;36882;27.680;85.304;2022-08-20T08:47:18;3.58;;;2.90;;
50906;SDS011;36882;27.680;85.304;2022-08-20T08:49:55;7.13;;;3.50;;
50906;SDS011;36882;27.680;85.304;2022-08-20T08:52:27;6.10;;;3.47;;
50906;SDS011;36882;27.680;85.304;2022-08-20T08:55:15;6.88;;;2.85;;
50906;SDS011;36882;27.680;85.304;2022-08-20T08:58:05;6.15;;;3.10;;
50906;SDS011;36882;27.680;85.304;2022-08-20T09:00:43;5.88;;;3.45;;
50906;SDS011;36882;27.680;85.304;2022-08-20T09:03:27;4.40;;;3.97;;
50906;SDS011;36882;27.680;85.304;2022-08-20T09:06:02;6.55;;;2.70;;
50906;SDS011;36882;27.680;85.304;2022-08-20T09:08:35;8.73;;;2.53;;
50906;SDS011;36882;27.680;85.304;2022-08-20T09:11:12;12.10;;;3.20;;
50906;SDS011;36882;27.680;85.304;2022-08-20T09:13:44;5.82;;;3.03;;
50906;SDS011;36882;27.680;85.304;2022-08-20T09:16:14;7.43;;;4.53;;
50906;SDS011;36882;27.680;85.304;2022-08-20T09:18:44;5.22;;;3.83;;
50906;SDS011;36882;27.680;85.304;2022-08-20T09:21:15;5.85;;;3.97;;
50906;SDS011;36882;27.680;85.304;2022-08-20T09:23:46;8.50;;;3.33;;
50906;SDS011;36882;27.680;85.304;2022-08-20T09:26:16;8.45;;;3.22;;
50906;SDS011;36882;27.680;85.304;2022-08-20T09:28:51;5.40;;;3.25;;
50906;SDS011;36882;27.680;85.304;2022-08-20T09:31:21;6.68;;;3.25;;
50906;SDS011;36882;27.680;85.304;2022-08-20T09:33:52;8.32;;;2.97;;
50906;SDS011;36882;27.680;85.304;2022-08-20T09:36:22;10.75;;;2.90;;
50906;SDS011;36882;27.680;85.304;2022-08-20T09:38:58;4.32;;;3.08;;
50906;SDS011;36882;27.680;85.304;2022-08-20T09:41:29;4.35;;;3.35;;
50906;SDS011;36882;27.680;85.304;2022-08-20T09:44:01;7.13;;;3.83;;
50906;SDS011;36882;27.680;85.304;2022-08-20T09:46:32;7.22;;;3.33;;
50906;SDS011;36882;27.680;85.304;2022-08-20T09:49:03;10.90;;;4.07;;
50906;SDS011;36882;27.680;85.304;2022-08-20T09:51:36;6.53;;;3.80;;
50906;SDS011;36882;27.680;85.304;2022-08-20T09:54:07;37.75;;;5.22;;
50906;SDS011;36882;27.680;85.304;2022-08-20T09:56:37;8.73;;;3.63;;
50906;SDS011;36882;27.680;85.304;2022-08-20T09:59:08;4.47;;;3.42;;
50906;SDS011;36882;27.680;85.304;2022-08-20T10:01:38;6.63;;;3.35;;
50906;SDS011;36882;27.680;85.304;2022-08-20T10:04:09;7.18;;;3.78;;
50906;SDS011;36882;27.680;85.304;2022-08-20T10:06:39;5.93;;;3.55;;
50906;SDS011;36882;27.680;85.304;2022-08-20T10:09:10;6.05;;;3.42;;
50906;SDS011;36882;27.680;85.304;2022-08-20T10:11:41;6.28;;;3.15;;
50906;SDS011;36882;27.680;85.304;2022-08-20T10:14:11;7.78;;;3.70;;
50906;SDS011;36882;27.680;85.304;2022-08-20T10:16:44;7.22;;;4.20;;
50906;SDS011;36882;27.680;85.304;2022-08-20T10:19:15;7.35;;;3.80;;
50906;SDS011;36882;27.680;85.304;2022-08-20T10:21:50;8.05;;;4.38;;
50906;SDS011;36882;27.680;85.304;2022-08-20T10:24:22;8.93;;;4.57;;
50906;SDS011;36882;27.680;85.304;2022-08-20T10:26:54;8.90;;;3.72;;
50906;SDS011;36882;27.680;85.304;2022-08-20T10:29:27;7.82;;;4.35;;
50906;SDS011;36882;27.680;85.304;2022-08-20T10:32:06;9.95;;;3.15;;
50906;SDS011;36882;27.680;85.304;2022-08-20T10:34:41;6.35;;;3.40;;
50906;SDS011;36882;27.680;85.304;2022-08-20T10:37:18;5.97;;;3.70;;
50906;SDS011;36882;27.680;85.304;2022-08-20T10:39:51;6.00;;;3.30;;
50906;SDS011;36882;27.680;85.304;2022-08-20T10:42:27;11.63;;;3.85;;
50906;SDS011;36882;27.680;85.304;2022-08-20T10:44:58;6.38;;;3.30;;
50906;SDS011;36882;27.680;85.304;2022-08-20T10:47:29;7.22;;;3.88;;
50906;SDS011;36882;27.680;85.304;2022-08-20T10:50:02;10.70;;;4.38;;
50906;SDS011;36882;27.680;85.304;2022-08-20T10:52:34;8.50;;;3.72;;
50906;SDS011;36882;27.680;85.304;2022-08-20T10:55:05;5.90;;;3.55;;
50906;SDS011;36882;27.680;85.304;2022-08-20T10:57:37;9.95;;;3.65;;
50906;SDS011;36882;27.680;85.304;2022-08-20T11:00:11;7.03;;;4.22;;
50906;SDS011;36882;27.680;85.304;2022-08-20T11:02:44;6.07;;;3.75;;
50906;SDS011;36882;27.680;85.304;2022-08-20T11:05:15;8.73;;;2.75;;
50906;SDS011;36882;27.680;85.304;2022-08-20T11:07:45;9.30;;;5.32;;
50906;SDS011;36882;27.680;85.304;2022-08-20T11:10:24;8.70;;;3.97;;
50906;SDS011;36882;27.680;85.304;2022-08-20T11:12:56;24.42;;;2.92;;
50906;SDS011;36882;27.680;85.304;2022-08-20T11:15:27;5.95;;;3.03;;
50906;SDS011;36882;27.680;85.304;2022-08-20T11:17:57;6.60;;;2.78;;
50906;SDS011;36882;27.680;85.304;2022-08-20T11:20:30;7.18;;;4.22;;
50906;SDS011;36882;27.680;85.304;2022-08-20T11:23:01;8.15;;;3.17;;
50906;SDS011;36882;27.680;85.304;2022-08-20T11:25:32;6.50;;;2.95;;
50906;SDS011;36882;27.680;85.304;2022-08-20T11:28:04;7.63;;;3.72;;
50906;SDS011;36882;27.680;85.304;2022-08-20T11:30:36;8.15;;;3.38;;
50906;SDS011;36882;27.680;85.304;2022-08-20T11:33:06;4.43;;;2.30;;
50906;SDS011;36882;27.680;85.304;2022-08-20T11:35:37;8.05;;;4.03;;
50906;SDS011;36882;27.680;85.304;2022-08-20T11:38:16;10.65;;;3.05;;
50906;SDS011;36882;27.680;85.304;2022-08-20T11:40:47;16.48;;;3.83;;
50906;SDS011;36882;27.680;85.304;2022-08-20T11:43:17;5.60;;;3.83;;
50906;SDS011;36882;27.680;85.304;2022-08-20T11:45:49;8.60;;;3.90;;
50906;SDS011;36882;27.680;85.304;2022-08-20T11:48:23;7.50;;;3.35;;
50906;SDS011;36882;27.680;85.304;2022-08-20T11:50:53;8.82;;;4.03;;
50906;SDS011;36882;27.680;85.304;2022-08-20T11:53:24;12.57;;;3.90;;
50906;SDS011;36882;27.680;85.304;2022-08-20T11:55:56;8.25;;;4.45;;
50906;SDS011;36882;27.680;85.304;2022-08-20T11:58:29;6.82;;;3.67;;
50906;SDS011;36882;27.680;85.304;2022-08-20T12:01:03;10.40;;;3.50;;
50906;SDS011;36882;27.680;85.304;2022-08-20T12:03:34;9.20;;;4.15;;
50906;SDS011;36882;27.680;85.304;2022-08-20T12:06:04;6.00;;;4.25;;
50906;SDS011;36882;27.680;85.304;2022-08-20T12:08:35;7.30;;;4.50;;
50906;SDS011;36882;27.680;85.304;2022-08-20T12:11:06;7.57;;;3.58;;
50906;SDS011;36882;27.680;85.304;2022-08-20T12:13:37;6.07;;;2.95;;
50906;SDS011;36882;27.680;85.304;2022-08-20T12:16:15;5.78;;;2.83;;
50906;SDS011;36882;27.680;85.304;2022-08-20T12:18:47;8.27;;;3.83;;
50906;SDS011;36882;27.680;85.304;2022-08-20T12:21:33;10.30;;;3.80;;
50906;SDS011;36882;27.680;85.304;2022-08-20T12:24:03;11.07;;;3.85;;
50906;SDS011;36882;27.680;85.304;2022-08-20T12:26:34;9.63;;;4.50;;
50906;SDS011;36882;27.680;85.304;2022-08-20T12:29:05;9.48;;;3.75;;
50906;SDS011;36882;27.680;85.304;2022-08-20T12:31:35;6.57;;;3.00;;
50906;SDS011;36882;27.680;85.304;2022-08-20T12:34:21;7.10;;;2.83;;
50906;SDS011;36882;27.680;85.304;2022-08-20T12:37:10;8.57;;;2.90;;
50906;SDS011;36882;27.680;85.304;2022-08-20T12:39:45;2.72;;;1.95;;
50906;SDS011;36882;27.680;85.304;2022-08-20T12:42:33;8.68;;;2.55;;
50906;SDS011;36882;27.680;85.304;2022-08-20T12:45:04;8.07;;;2.20;;
50906;SDS011;36882;27.680;85.304;2022-08-20T12:47:37;7.00;;;1.70;;
50906;SDS011;36882;27.680;85.304;2022-08-20T12:50:11;6.55;;;1.83;;
50906;SDS011;36882;27.680;85.304;2022-08-20T12:52:44;8.32;;;1.80;;
50906;SDS011;36882;27.680;85.304;2022-08-20T12:55:17;5.20;;;1.38;;
50906;SDS011;36882;27.680;85.304;2022-08-20T12:57:49;9.73;;;2.10;;
50906;SDS011;36882;27.680;85.304;2022-08-20T13:00:23;9.45;;;2.83;;
50906;SDS011;36882;27.680;85.304;2022-08-20T13:02:58;6.95;;;2.53;;
50906;SDS011;36882;27.680;85.304;2022-08-20T13:05:30;11.75;;;2.30;;
50906;SDS011;36882;27.680;85.304;2022-08-20T13:08:17;9.35;;;3.33;;
50906;SDS011;36882;27.680;85.304;2022-08-20T13:10:47;9.20;;;3.65;;
50906;SDS011;36882;27.680;85.304;2022-08-20T13:13:18;5.30;;;3.00;;
50906;SDS011;36882;27.680;85.304;2022-08-20T13:15:49;7.97;;;2.63;;
50906;SDS011;36882;27.680;85.304;2022-08-20T13:18:20;7.20;;;2.50;;
50906;SDS011;36882;27.680;85.304;2022-08-20T13:20:50;7.05;;;2.92;;
50906;SDS011;36882;27.680;85.304;2022-08-20T13:23:20;5.80;;;2.67;;
50906;SDS011;36882;27.680;85.304;2022-08-20T13:25:51;6.82;;;3.33;;
50906;SDS011;36882;27.680;85.304;2022-08-20T13:28:36;8.48;;;3.40;;
50906;SDS011;36882;27.680;85.304;2022-08-20T13:31:07;5.22;;;2.97;;
50906;SDS011;36882;27.680;85.304;2022-08-20T13:33:38;7.85;;;2.03;;
50906;SDS011;36882;27.680;85.304;2022-08-20T13:36:26;9.43;;;3.15;;
50906;SDS011;36882;27.680;85.304;2022-08-20T13:38:56;6.70;;;2.47;;
50906;SDS011;36882;27.680;85.304;2022-08-20T13:41:42;7.90;;;2.70;;
50906;SDS011;36882;27.680;85.304;2022-08-20T13:44:13;11.82;;;4.15;;
50906;SDS011;36882;27.680;85.304;2022-08-20T13:46:43;7.88;;;3.97;;
50906;SDS011;36882;27.680;85.304;2022-08-20T13:49:16;8.60;;;4.78;;
50906;SDS011;36882;27.680;85.304;2022-08-20T13:51:47;11.85;;;4.40;;
50906;SDS011;36882;27.680;85.304;2022-08-20T13:54:18;11.50;;;4.55;;
50906;SDS011;36882;27.680;85.304;2022-08-20T13:57:12;9.75;;;4.22;;
50906;SDS011;36882;27.680;85.304;2022-08-20T13:59:47;8.32;;;4.75;;
50906;SDS011;36882;27.680;85.304;2022-08-20T14:02:19;13.02;;;8.80;;
50906;SDS011;36882;27.680;85.304;2022-08-20T14:04:50;13.25;;;5.95;;
50906;SDS011;36882;27.680;85.304;2022-08-20T14:07:23;15.88;;;4.97;;
50906;SDS011;36882;27.680;85.304;2022-08-20T14:10:00;15.00;;;5.22;;
50906;SDS011;36882;27.680;85.304;2022-08-20T14:12:34;7.07;;;3.90;;
50906;SDS011;36882;27.680;85.304;2022-08-20T14:15:05;16.52;;;11.77;;
50906;SDS011;36882;27.680;85.304;2022-08-20T14:17:42;13.10;;;10.18;;
50906;SDS011;36882;27.680;85.304;2022-08-20T14:20:23;7.30;;;4.43;;
50906;SDS011;36882;27.680;85.304;2022-08-20T14:22:58;15.63;;;9.40;;
50906;SDS011;36882;27.680;85.304;2022-08-20T14:25:29;13.82;;;10.00;;
50906;SDS011;36882;27.680;85.304;2022-08-20T14:28:17;12.60;;;6.50;;
50906;SDS011;36882;27.680;85.304;2022-08-20T14:33:36;9.45;;;4.63;;
50906;SDS011;36882;27.680;85.304;2022-08-20T14:36:10;9.07;;;4.47;;
50906;SDS011;36882;27.680;85.304;2022-08-20T14:38:41;14.30;;;5.80;;
50906;SDS011;36882;27.680;85.304;2022-08-20T14:41:13;13.23;;;6.18;;
50906;SDS011;36882;27.680;85.304;2022-08-20T14:43:44;17.98;;;5.53;;
50906;SDS011;36882;27.680;85.304;2022-08-20T14:46:14;14.27;;;4.53;;
50906;SDS011;36882;27.680;85.304;2022-08-20T14:48:44;11.25;;;5.72;;
50906;SDS011;36882;27.680;85.304;2022-08-20T14:51:19;13.13;;;6.38;;
50906;SDS011;36882;27.680;85.304;2022-08-20T14:53:50;14.18;;;5.07;;
50906;SDS011;36882;27.680;85.304;2022-08-20T14:56:20;12.55;;;6.85;;
50906;SDS011;36882;27.680;85.304;2022-08-20T14:58:51;13.15;;;4.57;;
50906;SDS011;36882;27.680;85.304;2022-08-20T15:01:21;16.85;;;4.00;;
50906;SDS011;36882;27.680;85.304;2022-08-20T15:03:52;6.47;;;4.30;;
50906;SDS011;36882;27.680;85.304;2022-08-20T15:06:22;10.52;;;3.10;;
50906;SDS011;36882;27.680;85.304;2022-08-20T15:08:53;12.15;;;3.72;;
50906;SDS011;36882;27.680;85.304;2022-08-20T15:11:24;13.30;;;3.58;;
50906;SDS011;36882;27.680;85.304;2022-08-20T15:14:00;11.15;;;4.53;;
50906;SDS011;36882;27.680;85.304;2022-08-20T15:16:46;5.97;;;4.30;;
50906;SDS011;36882;27.680;85.304;2022-08-20T15:19:17;10.25;;;3.92;;
50906;SDS011;36882;27.680;85.304;2022-08-20T15:21:48;12.68;;;3.67;;
50906;SDS011;36882;27.680;85.304;2022-08-20T15:24:19;7.90;;;3.30;;
50906;SDS011;36882;27.680;85.304;2022-08-20T15:26:49;10.20;;;3.88;;
50906;SDS011;36882;27.680;85.304;2022-08-20T15:29:20;13.38;;;3.58;;
50906;SDS011;36882;27.680;85.304;2022-08-20T15:31:50;11.43;;;3.50;;
50906;SDS011;36882;27.680;85.304;2022-08-20T15:34:37;11.50;;;3.63;;